Terminal Aerodrome Forecast
Issued by NWS Billings, MT

Home | Current Version | Previous Version | Graphics & Text | Print | Product List | Glossary On
Versions: 1 2 3 4 5 6 7 8 9 10 11 12 13 14 15 16 17 18 19 20 21 22 23 24 25 26 27 28
067
FTUS45 KBYZ 221139
TAFMLS
TAF
KMLS 221139Z 2212/2312 14014KT P6SM BKN009 OVC012
     FM221600 13012KT P6SM SCT015 SCT090
     FM222000 30009KT P6SM SCT200
     FM230000 08005KT P6SM SCT050 BKN120
     FM230900 36005KT 6SM -RA SCT025 BKN040 OVC080=

USA.gov is the U.S. government's official web portal to all federal, state and local government web resources and services.